createdAt,value
2018-06-18T00:00:50.639Z,3.03
2018-06-18T00:03:18.702Z,3.03
2018-06-18T00:05:46.773Z,3.20
2018-06-18T00:08:14.881Z,3.03
2018-06-18T00:10:42.958Z,2.40
2018-06-18T00:13:11.052Z,4.50
2018-06-18T00:15:39.138Z,3.07
2018-06-18T00:18:07.221Z,3.37
2018-06-18T00:20:35.282Z,3.53
2018-06-18T00:23:03.388Z,2.57
2018-06-18T00:25:31.468Z,4.53
2018-06-18T00:27:59.518Z,2.53
2018-06-18T00:30:27.574Z,3.80
2018-06-18T00:32:55.628Z,2.97
2018-06-18T00:35:23.705Z,3.10
2018-06-18T00:37:51.768Z,3.30
2018-06-18T00:40:19.834Z,3.63
2018-06-18T00:42:47.886Z,3.07
2018-06-18T00:45:15.958Z,3.90
2018-06-18T00:47:44.003Z,4.10
2018-06-18T00:50:12.090Z,3.60
2018-06-18T00:52:40.167Z,3.40
2018-06-18T00:55:08.231Z,3.00
2018-06-18T00:57:36.287Z,2.80
2018-06-18T01:00:04.403Z,2.43
2018-06-18T01:02:32.478Z,2.90
2018-06-18T01:05:00.558Z,2.60
2018-06-18T01:07:28.625Z,3.03
2018-06-18T01:09:56.785Z,3.57
2018-06-18T01:12:24.827Z,2.47
2018-06-18T01:14:52.918Z,3.77
2018-06-18T01:17:20.996Z,2.87
2018-06-18T01:19:49.339Z,3.67
2018-06-18T01:22:17.410Z,4.23
2018-06-18T01:24:50.718Z,3.17
2018-06-18T01:27:18.827Z,3.20
2018-06-18T01:29:46.882Z,4.17
2018-06-18T01:32:15.224Z,3.43
2018-06-18T01:34:43.567Z,3.30
2018-06-18T01:37:11.650Z,3.17
2018-06-18T01:39:39.706Z,3.83
2018-06-18T01:42:07.759Z,2.83
2018-06-18T01:44:35.810Z,3.33
2018-06-18T01:47:03.870Z,2.70
2018-06-18T01:49:32.210Z,3.40
2018-06-18T01:52:00.259Z,4.60
2018-06-18T01:54:28.633Z,3.73
2018-06-18T01:56:56.733Z,2.90
2018-06-18T01:59:24.818Z,3.40
2018-06-18T02:01:52.895Z,2.00
2018-06-18T02:04:20.974Z,4.47
2018-06-18T02:06:49.043Z,4.50
2018-06-18T02:09:17.104Z,4.67
2018-06-18T02:11:45.041Z,2.90
2018-06-18T02:14:13.099Z,3.00
2018-06-18T02:16:41.219Z,2.93
2018-06-18T02:19:09.570Z,4.53
2018-06-18T02:21:38.010Z,3.97
2018-06-18T02:24:06.354Z,4.43
2018-06-18T02:26:34.440Z,5.70
2018-06-18T02:29:08.035Z,2.67
2018-06-18T02:31:41.538Z,4.20
2018-06-18T02:35:17.857Z,2.23
2018-06-18T02:37:51.274Z,3.37
2018-06-18T02:40:24.719Z,1.83
2018-06-18T02:42:52.774Z,2.80
2018-06-18T02:45:21.243Z,2.63
2018-06-18T02:47:49.307Z,2.10
2018-06-18T02:50:17.494Z,2.40
2018-06-18T02:52:45.711Z,2.07
2018-06-18T02:55:13.778Z,2.33
2018-06-18T02:57:42.022Z,2.53
2018-06-18T03:00:10.410Z,3.07
2018-06-18T03:02:38.494Z,2.27
2018-06-18T03:05:06.550Z,2.33
2018-06-18T03:07:34.617Z,1.67
2018-06-18T03:10:02.762Z,2.63
2018-06-18T03:12:30.831Z,3.30
2018-06-18T03:14:58.919Z,2.60
2018-06-18T03:17:27.004Z,1.87
2018-06-18T03:20:00.584Z,1.97
2018-06-18T03:22:34.182Z,2.80
2018-06-18T03:25:07.786Z,2.00
2018-06-18T03:27:41.410Z,2.27
2018-06-18T03:30:09.470Z,2.10
2018-06-18T03:32:37.558Z,3.43
2018-06-18T03:35:05.657Z,2.60
2018-06-18T03:37:33.778Z,3.30
2018-06-18T03:40:02.146Z,2.00
2018-06-18T03:42:30.336Z,2.00
2018-06-18T03:45:10.969Z,4.80
2018-06-18T03:47:39.040Z,1.83
2018-06-18T03:50:07.121Z,2.23
2018-06-18T03:52:35.188Z,2.70
2018-06-18T03:55:07.471Z,2.17
2018-06-18T03:57:35.530Z,2.90
2018-06-18T04:00:03.647Z,2.90
2018-06-18T04:02:43.085Z,2.10
2018-06-18T04:05:16.731Z,1.90
2018-06-18T04:07:50.343Z,3.23
2018-06-18T04:10:23.926Z,2.70
2018-06-18T04:12:52.034Z,2.33
2018-06-18T04:15:20.098Z,2.10
2018-06-18T04:17:48.477Z,3.23
2018-06-18T04:20:16.531Z,2.70
2018-06-18T04:22:44.603Z,1.97
2018-06-18T04:25:12.677Z,2.73
2018-06-18T04:27:40.848Z,1.90
2018-06-18T04:30:08.930Z,2.17
2018-06-18T04:32:37.007Z,2.40
2018-06-18T04:35:07.798Z,1.67
2018-06-18T04:37:35.913Z,1.43
2018-06-18T04:40:04.595Z,2.00
2018-06-18T04:42:38.107Z,2.23
2018-06-18T04:45:11.655Z,2.80
2018-06-18T04:48:45.021Z,2.40
2018-06-18T04:51:13.086Z,1.50
2018-06-18T04:53:41.154Z,1.63
2018-06-18T04:56:09.216Z,2.00
2018-06-18T04:58:37.298Z,2.27
2018-06-18T05:01:21.647Z,2.20
2018-06-18T05:03:49.714Z,1.77
2018-06-18T05:06:17.779Z,1.33
2018-06-18T05:09:08.435Z,2.20
2018-06-18T05:11:36.499Z,1.97
2018-06-18T05:14:04.567Z,1.10
2018-06-18T05:16:32.698Z,2.70
2018-06-18T05:19:00.771Z,1.83
2018-06-18T05:21:28.844Z,2.03
2018-06-18T05:23:56.918Z,1.40
2018-06-18T05:26:25.447Z,2.37
2018-06-18T05:28:53.494Z,2.20
2018-06-18T05:31:21.545Z,3.03
2018-06-18T05:33:49.603Z,1.97
2018-06-18T05:36:17.678Z,2.63
2018-06-18T05:38:45.755Z,1.40
2018-06-18T05:41:13.825Z,1.40
2018-06-18T05:43:42.272Z,3.13
2018-06-18T05:46:10.326Z,1.43
2018-06-18T05:48:38.399Z,2.40
2018-06-18T05:51:06.472Z,1.93
2018-06-18T05:53:34.555Z,1.50
2018-06-18T05:56:02.682Z,2.97
2018-06-18T05:58:30.764Z,2.07
2018-06-18T06:00:58.823Z,1.17
2018-06-18T06:03:26.890Z,1.60
2018-06-18T06:05:55.494Z,5.57
2018-06-18T06:08:23.548Z,5.93
2018-06-18T06:10:51.654Z,4.60
2018-06-18T06:13:19.743Z,27.77
2018-06-18T06:15:47.971Z,8.70
2018-06-18T06:18:16.026Z,6.43
2018-06-18T06:20:46.474Z,3.57
2018-06-18T06:23:14.552Z,3.97
2018-06-18T06:25:42.618Z,8.30
2018-06-18T06:28:10.686Z,4.97
2018-06-18T06:30:38.754Z,6.73
2018-06-18T06:33:06.811Z,6.27
2018-06-18T06:35:37.443Z,10.23
2018-06-18T06:38:05.491Z,6.07
2018-06-18T06:40:33.561Z,6.73
2018-06-18T06:43:01.626Z,6.07
2018-06-18T06:45:29.678Z,8.77
2018-06-18T06:47:57.726Z,7.27
2018-06-18T06:50:26.112Z,6.00
2018-06-18T06:52:54.299Z,8.17
2018-06-18T06:55:22.367Z,7.57
2018-06-18T06:57:50.439Z,9.17
2018-06-18T07:00:18.899Z,7.27
2018-06-18T07:02:46.942Z,9.30
2018-06-18T07:05:15.015Z,12.40
2018-06-18T07:07:43.085Z,10.40
2018-06-18T07:10:11.154Z,6.40
2018-06-18T07:12:39.211Z,14.20
2018-06-18T07:15:07.334Z,11.70
2018-06-18T07:17:36.263Z,8.17
2018-06-18T07:20:04.658Z,11.20
2018-06-18T07:22:32.753Z,8.87
2018-06-18T07:25:00.783Z,7.60
2018-06-18T07:27:28.876Z,9.73
2018-06-18T07:29:56.966Z,12.33
2018-06-18T07:32:25.032Z,10.67
2018-06-18T07:34:53.106Z,9.33
2018-06-18T07:37:21.495Z,18.73
2018-06-18T07:39:49.715Z,14.57
2018-06-18T07:42:17.885Z,16.73
2018-06-18T07:44:45.966Z,11.83
2018-06-18T07:47:14.034Z,13.47
2018-06-18T07:49:42.278Z,15.80
2018-06-18T07:52:10.353Z,8.37
2018-06-18T07:54:38.440Z,12.43
2018-06-18T07:59:41.233Z,8.83
2018-06-18T08:02:09.301Z,14.67
2018-06-18T08:04:37.370Z,7.37
2018-06-18T08:07:05.759Z,10.77
2018-06-18T08:09:33.870Z,8.17
2018-06-18T08:12:01.917Z,11.47
2018-06-18T08:14:30.370Z,13.47
2018-06-18T08:16:58.462Z,7.87
2018-06-18T08:19:26.579Z,16.73
2018-06-18T08:21:54.654Z,10.30
2018-06-18T08:24:22.926Z,21.00
2018-06-18T08:26:51.000Z,8.60
2018-06-18T08:29:19.067Z,13.70
2018-06-18T08:31:47.401Z,10.63
2018-06-18T08:34:15.462Z,5.97
2018-06-18T08:36:43.687Z,7.60
2018-06-18T08:39:12.356Z,9.20
2018-06-18T08:41:41.321Z,6.53
2018-06-18T08:44:09.631Z,11.63
2018-06-18T08:46:38.375Z,12.60
2018-06-18T08:49:08.745Z,9.83
2018-06-18T08:51:42.738Z,6.67
2018-06-18T08:54:16.158Z,6.03
2018-06-18T08:56:49.830Z,8.83
2018-06-18T08:59:23.710Z,11.00
2018-06-18T09:01:51.787Z,10.33
2018-06-18T09:04:25.266Z,5.87
2018-06-18T09:06:57.616Z,7.97
2018-06-18T09:09:25.958Z,5.90
2018-06-18T09:11:54.027Z,6.30
2018-06-18T09:14:22.098Z,5.33
2018-06-18T09:16:50.622Z,6.50
2018-06-18T09:19:18.710Z,6.80
2018-06-18T09:21:46.788Z,6.73
2018-06-18T09:24:14.870Z,4.87
2018-06-18T09:26:42.950Z,11.70
2018-06-18T09:29:11.023Z,4.67
2018-06-18T09:31:43.346Z,7.33
2018-06-18T09:34:11.418Z,12.63
2018-06-18T09:36:39.483Z,8.00
2018-06-18T09:39:07.723Z,6.37
2018-06-18T09:41:35.778Z,7.57
2018-06-18T09:44:03.876Z,8.77
2018-06-18T09:46:32.030Z,6.17
2018-06-18T09:50:04.842Z,8.57
2018-06-18T09:52:39.166Z,5.40
2018-06-18T09:55:14.523Z,7.97
2018-06-18T09:57:48.519Z,9.07
2018-06-18T10:00:32.479Z,8.37
2018-06-18T10:03:03.055Z,5.27
2018-06-18T10:05:31.179Z,9.37
2018-06-18T10:07:59.276Z,8.93
2018-06-18T10:10:27.363Z,5.17
2018-06-18T10:12:55.759Z,6.80
2018-06-18T10:15:23.814Z,5.47
2018-06-18T10:17:51.898Z,6.80
2018-06-18T10:20:19.972Z,10.00
2018-06-18T10:22:48.041Z,4.33
2018-06-18T10:25:16.375Z,7.13
2018-06-18T10:27:44.451Z,5.87
2018-06-18T10:30:12.543Z,8.37
2018-06-18T10:32:46.124Z,6.57
2018-06-18T10:35:19.708Z,9.93
2018-06-18T10:37:53.311Z,9.40
2018-06-18T10:40:27.187Z,6.80
2018-06-18T10:43:00.694Z,6.30
2018-06-18T10:45:28.771Z,6.53
2018-06-18T10:47:56.839Z,5.73
2018-06-18T10:50:24.782Z,4.63
2018-06-18T10:52:52.839Z,6.90
2018-06-18T10:55:20.977Z,6.87
2018-06-18T10:57:49.144Z,4.93
2018-06-18T11:00:21.185Z,3.93
2018-06-18T11:02:49.231Z,5.87
2018-06-18T11:05:17.287Z,5.67
2018-06-18T11:07:45.346Z,3.50
2018-06-18T11:10:13.694Z,5.13
2018-06-18T11:12:41.734Z,8.10
2018-06-18T11:15:09.818Z,4.93
2018-06-18T11:17:43.326Z,6.77
2018-06-18T11:20:17.058Z,5.97
2018-06-18T11:22:50.536Z,6.80
2018-06-18T11:25:23.999Z,4.73
2018-06-18T11:27:52.587Z,6.80
2018-06-18T11:30:20.651Z,5.03
2018-06-18T11:32:48.886Z,8.20
2018-06-18T11:35:17.251Z,9.30
2018-06-18T11:37:45.365Z,10.90
2018-06-18T11:40:13.655Z,10.33
2018-06-18T11:42:41.727Z,4.67
2018-06-18T11:45:09.803Z,8.53
2018-06-18T11:47:37.879Z,6.73
2018-06-18T11:50:06.194Z,4.07
2018-06-18T11:52:34.267Z,9.10
2018-06-18T11:55:02.294Z,4.90
2018-06-18T11:57:30.351Z,7.87
2018-06-18T12:01:04.890Z,6.37
2018-06-18T12:03:38.516Z,7.37
2018-06-18T12:06:11.982Z,11.50
2018-06-18T12:08:45.538Z,2.93
2018-06-18T12:11:13.627Z,5.33
2018-06-18T12:13:42.078Z,3.67
2018-06-18T12:16:10.163Z,9.20
2018-06-18T12:18:38.222Z,5.20
2018-06-18T12:21:06.486Z,7.97
2018-06-18T12:23:34.550Z,7.10
2018-06-18T12:26:02.617Z,7.33
2018-06-18T12:28:30.667Z,4.70
2018-06-18T12:30:58.740Z,14.13
2018-06-18T12:33:27.656Z,6.97
2018-06-18T12:35:55.706Z,6.03
2018-06-18T12:38:23.914Z,5.10
2018-06-18T12:40:52.183Z,4.53
2018-06-18T12:43:21.838Z,5.43
2018-06-18T12:45:57.434Z,3.73
2018-06-18T12:48:31.078Z,3.07
2018-06-18T12:51:04.804Z,8.60
2018-06-18T12:53:38.390Z,5.17
2018-06-18T12:56:12.107Z,3.07
2018-06-18T12:58:40.163Z,2.73
2018-06-18T13:01:09.975Z,5.07
2018-06-18T13:03:38.031Z,3.97
2018-06-18T13:06:05.993Z,2.83
2018-06-18T13:08:34.203Z,3.50
2018-06-18T13:11:02.264Z,3.60
2018-06-18T13:13:30.324Z,2.53
2018-06-18T13:15:58.379Z,1.87
2018-06-18T13:18:26.434Z,3.67
2018-06-18T13:20:54.490Z,3.00
2018-06-18T13:23:22.623Z,3.67
2018-06-18T13:25:50.674Z,6.13
2018-06-18T13:28:18.733Z,5.47
2018-06-18T13:30:46.875Z,4.10
2018-06-18T13:33:15.171Z,10.43
2018-06-18T13:35:43.222Z,11.80
2018-06-18T13:38:16.779Z,16.50
2018-06-18T13:40:50.437Z,13.97
2018-06-18T13:43:23.918Z,10.80
2018-06-18T13:45:57.422Z,11.60
2018-06-18T13:48:31.080Z,7.97
2018-06-18T13:50:59.205Z,14.50
2018-06-18T13:53:27.506Z,8.80
2018-06-18T13:55:55.572Z,8.47
2018-06-18T13:58:23.642Z,6.27
2018-06-18T14:00:51.711Z,7.17
2018-06-18T14:03:19.772Z,5.03
2018-06-18T14:05:47.841Z,9.93
2018-06-18T14:08:15.913Z,4.93
2018-06-18T14:10:43.851Z,11.50
2018-06-18T14:13:12.039Z,15.60
2018-06-18T14:15:40.300Z,10.00
2018-06-18T14:18:08.824Z,3.70
2018-06-18T14:20:36.907Z,10.50
2018-06-18T14:23:05.024Z,15.40
2018-06-18T14:25:33.284Z,10.73
2018-06-18T14:28:01.395Z,7.20
2018-06-18T14:30:34.987Z,9.00
2018-06-18T14:34:07.128Z,8.20
2018-06-18T14:36:40.940Z,9.00
2018-06-18T14:39:14.836Z,10.57
2018-06-18T14:41:43.018Z,11.57
2018-06-18T14:44:11.585Z,11.17
2018-06-18T14:46:39.719Z,5.80
2018-06-18T14:49:07.812Z,6.80
2018-06-18T14:51:43.003Z,12.50
2018-06-18T14:54:11.530Z,8.27
2018-06-18T14:56:39.719Z,7.93
2018-06-18T14:59:16.332Z,7.57
2018-06-18T15:01:44.630Z,7.03
2018-06-18T15:04:12.808Z,6.00
2018-06-18T15:06:40.911Z,10.33
2018-06-18T15:09:10.665Z,13.23
2018-06-18T15:11:39.171Z,10.77
2018-06-18T15:14:07.292Z,16.73
2018-06-18T15:16:35.379Z,10.97
2018-06-18T15:19:03.476Z,8.27
2018-06-18T15:21:34.109Z,5.87
2018-06-18T15:24:05.331Z,6.17
2018-06-18T15:26:33.394Z,6.90
2018-06-18T15:29:01.467Z,10.80
2018-06-18T15:31:29.522Z,7.67
2018-06-18T15:33:57.586Z,5.07
2018-06-18T15:36:25.643Z,4.93
2018-06-18T15:38:53.718Z,8.57
2018-06-18T15:41:22.011Z,4.17
2018-06-18T15:43:49.932Z,6.33
2018-06-18T15:46:18.183Z,3.33
2018-06-18T15:48:46.267Z,8.90
2018-06-18T15:51:14.642Z,4.10
2018-06-18T15:53:42.714Z,8.60
2018-06-18T15:56:10.775Z,4.37
2018-06-18T15:58:38.850Z,5.77
2018-06-18T16:01:06.928Z,6.93
2018-06-18T16:03:34.998Z,6.17
2018-06-18T16:06:03.050Z,6.37
2018-06-18T16:08:31.159Z,4.70
2018-06-18T16:10:59.202Z,6.60
2018-06-18T16:13:27.372Z,10.77
2018-06-18T16:15:55.463Z,7.73
2018-06-18T16:18:23.763Z,7.40
2018-06-18T16:20:51.826Z,6.40
2018-06-18T16:23:19.891Z,9.40
2018-06-18T16:25:47.962Z,7.00
2018-06-18T16:28:16.146Z,6.23
2018-06-18T16:30:44.235Z,10.10
2018-06-18T16:33:12.307Z,7.10
2018-06-18T16:35:40.383Z,9.00
2018-06-18T16:38:08.473Z,6.10
2018-06-18T16:40:36.550Z,5.90
2018-06-18T16:43:04.914Z,6.47
2018-06-18T16:45:32.986Z,5.17
2018-06-18T16:48:01.047Z,6.50
2018-06-18T16:50:29.414Z,4.43
2018-06-18T16:52:57.479Z,4.20
2018-06-18T16:55:25.558Z,5.90
2018-06-18T16:57:53.618Z,4.60
2018-06-18T17:00:21.683Z,7.67
2018-06-18T17:02:49.854Z,4.53
2018-06-18T17:05:17.848Z,4.00
2018-06-18T17:07:46.150Z,6.27
2018-06-18T17:10:14.451Z,5.07
2018-06-18T17:12:42.585Z,5.40
2018-06-18T17:15:10.663Z,3.43
2018-06-18T17:17:38.746Z,5.23
2018-06-18T17:20:06.860Z,4.17
2018-06-18T17:22:34.971Z,4.90
2018-06-18T17:25:03.344Z,2.77
2018-06-18T17:27:31.417Z,4.90
2018-06-18T17:29:59.487Z,2.80
2018-06-18T17:32:27.551Z,2.70
2018-06-18T17:34:55.639Z,4.83
2018-06-18T17:37:23.716Z,3.20
2018-06-18T17:39:51.769Z,4.07
2018-06-18T17:42:20.199Z,6.53
2018-06-18T17:44:48.275Z,4.90
2018-06-18T17:47:16.336Z,3.27
2018-06-18T17:49:44.422Z,4.27
2018-06-18T17:52:12.487Z,3.67
2018-06-18T17:54:40.554Z,3.50
2018-06-18T17:57:08.634Z,3.33
2018-06-18T17:59:36.774Z,6.37
2018-06-18T18:02:04.847Z,4.37
2018-06-18T18:04:32.931Z,6.23
2018-06-18T18:07:00.997Z,4.23
2018-06-18T18:09:29.062Z,5.37
2018-06-18T18:11:57.123Z,6.37
2018-06-18T18:14:25.187Z,3.47
2018-06-18T18:16:53.251Z,5.20
2018-06-18T18:19:21.318Z,5.17
2018-06-18T18:21:49.375Z,4.33
2018-06-18T18:24:17.427Z,3.60
2018-06-18T18:26:45.498Z,2.43
2018-06-18T18:29:13.550Z,4.73
2018-06-18T18:31:41.610Z,4.53
2018-06-18T18:34:09.682Z,4.33
2018-06-18T18:36:37.751Z,4.50
2018-06-18T18:39:07.900Z,5.80
2018-06-18T18:41:35.966Z,5.87
2018-06-18T18:44:04.254Z,6.47
2018-06-18T18:46:32.315Z,4.63
2018-06-18T18:49:00.371Z,8.20
2018-06-18T18:51:28.430Z,4.00
2018-06-18T18:53:56.526Z,7.40
2018-06-18T18:56:36.198Z,4.20
2018-06-18T18:59:16.322Z,6.90
2018-06-18T19:01:44.402Z,3.70
2018-06-18T19:04:15.515Z,6.20
2018-06-18T19:06:43.587Z,5.03
2018-06-18T19:09:12.053Z,3.40
2018-06-18T19:11:40.267Z,3.63
2018-06-18T19:14:08.307Z,4.83
2018-06-18T19:16:36.383Z,4.67
2018-06-18T19:19:05.004Z,4.77
2018-06-18T19:21:33.076Z,3.60
2018-06-18T19:24:01.230Z,4.80
2018-06-18T19:26:29.303Z,6.30
2018-06-18T19:28:57.358Z,4.07
2018-06-18T19:31:25.900Z,5.87
2018-06-18T19:34:04.237Z,6.30
2018-06-18T19:36:32.300Z,5.77
2018-06-18T19:39:00.367Z,3.73
2018-06-18T19:41:28.449Z,5.97
2018-06-18T19:43:56.502Z,3.57
2018-06-18T19:46:29.857Z,5.40
2018-06-18T19:49:02.718Z,3.00
2018-06-18T19:51:30.827Z,3.27
2018-06-18T19:53:59.130Z,3.40
2018-06-18T19:56:27.207Z,6.50
2018-06-18T19:58:55.257Z,5.00
2018-06-18T20:01:23.386Z,4.57
2018-06-18T20:03:51.454Z,3.70
2018-06-18T20:06:19.519Z,7.33
2018-06-18T20:08:47.584Z,4.83
2018-06-18T20:11:15.506Z,5.87
2018-06-18T20:13:43.578Z,4.77
2018-06-18T20:16:11.651Z,3.97
2018-06-18T20:18:39.719Z,2.93
2018-06-18T20:21:07.779Z,8.33
2018-06-18T20:23:35.850Z,4.17
2018-06-18T20:26:10.229Z,4.60
2018-06-18T20:28:38.294Z,4.20
2018-06-18T20:31:06.506Z,7.97
2018-06-18T20:33:37.099Z,2.60
2018-06-18T20:36:08.854Z,3.90
2018-06-18T20:38:36.923Z,3.43
2018-06-18T20:41:04.991Z,3.57
2018-06-18T20:43:38.883Z,4.87
2018-06-18T20:46:06.935Z,6.30
2018-06-18T20:48:36.306Z,6.03
2018-06-18T20:51:04.387Z,7.77
2018-06-18T20:53:32.720Z,9.57
2018-06-18T20:56:01.115Z,8.23
2018-06-18T20:58:29.190Z,9.73
2018-06-18T21:00:57.289Z,8.27
2018-06-18T21:03:25.348Z,7.60
2018-06-18T21:05:53.406Z,9.20
2018-06-18T21:08:21.475Z,5.60
2018-06-18T21:10:49.561Z,6.33
2018-06-18T21:13:17.643Z,5.83
2018-06-18T21:15:45.731Z,4.70
2018-06-18T21:18:13.786Z,5.00
2018-06-18T21:20:42.038Z,4.60
2018-06-18T21:23:10.102Z,3.90
2018-06-18T21:25:38.583Z,4.70
2018-06-18T21:28:06.736Z,4.00
2018-06-18T21:30:35.064Z,8.07
2018-06-18T21:33:03.318Z,3.67
2018-06-18T21:35:31.418Z,3.53
2018-06-18T21:37:59.494Z,3.40
2018-06-18T21:40:27.563Z,4.73
2018-06-18T21:42:55.622Z,4.13
2018-06-18T21:45:25.202Z,3.20
2018-06-18T21:47:54.562Z,3.60
2018-06-18T21:50:22.866Z,3.43
2018-06-18T21:52:51.149Z,3.00
2018-06-18T21:55:19.234Z,4.70
2018-06-18T21:57:47.340Z,2.90
2018-06-18T22:00:26.107Z,3.13
2018-06-18T22:02:54.272Z,3.93
2018-06-18T22:05:22.370Z,3.33
2018-06-18T22:07:50.451Z,4.27
2018-06-18T22:10:18.521Z,2.80
2018-06-18T22:12:46.707Z,2.70
2018-06-18T22:15:14.999Z,3.30
2018-06-18T22:17:43.063Z,3.63
2018-06-18T22:20:11.202Z,3.10
2018-06-18T22:22:39.272Z,3.93
2018-06-18T22:25:07.370Z,2.70
2018-06-18T22:27:35.443Z,3.10
2018-06-18T22:30:03.546Z,2.73
2018-06-18T22:32:31.631Z,2.90
2018-06-18T22:35:00.032Z,2.77
2018-06-18T22:37:28.187Z,3.13
2018-06-18T22:39:56.252Z,3.77
2018-06-18T22:42:24.341Z,3.03
2018-06-18T22:44:52.436Z,4.73
2018-06-18T22:47:20.502Z,3.17
2018-06-18T22:49:48.570Z,2.70
2018-06-18T22:52:16.850Z,3.17
2018-06-18T22:54:47.064Z,2.80
2018-06-18T22:57:15.711Z,2.40
2018-06-18T22:59:44.031Z,4.57
2018-06-18T23:02:13.989Z,4.40
2018-06-18T23:04:42.054Z,3.17
2018-06-18T23:07:10.151Z,5.13
2018-06-18T23:09:38.243Z,4.40
2018-06-18T23:12:06.341Z,4.70
2018-06-18T23:14:34.217Z,3.30
2018-06-18T23:17:02.295Z,4.10
2018-06-18T23:19:30.354Z,4.27
2018-06-18T23:21:58.221Z,2.83
2018-06-18T23:24:26.291Z,3.50
2018-06-18T23:26:54.379Z,3.43
2018-06-18T23:29:22.851Z,3.57
2018-06-18T23:31:50.950Z,6.10
2018-06-18T23:34:19.032Z,3.43
2018-06-18T23:36:47.158Z,4.13
2018-06-18T23:39:15.230Z,4.40
2018-06-18T23:41:46.592Z,3.23
2018-06-18T23:44:14.655Z,4.07
2018-06-18T23:46:42.722Z,4.10
2018-06-18T23:49:10.786Z,4.53
2018-06-18T23:51:38.886Z,4.50
2018-06-18T23:54:06.943Z,4.07
2018-06-18T23:56:35.021Z,3.93
2018-06-18T23:59:03.094Z,5.57
